Anzahl Datensätze: 144
min. Temperatur: 2.5 °C
max. Temperatur: 15.8 °C
max. Windgeschwindigkeit: 15.1 km/h
Niederschlagsumme: 0.0 mm
| Datum |
Zeit |
Temp °C |
Feuchte % |
Taupunkt °C |
Luftdruck hPa |
Wind km/h |
Windrichtung |
Strahlung w/m² |
Niederschlag mm |
|---|---|---|---|---|---|---|---|---|---|
| 08.04.2025 | 00:00 | 6.2 | 61 | -0.8 | 1021.7 | 2.9 | S | 0 | 0.0 |
| 08.04.2025 | 00:10 | 6.1 | 63 | -0.5 | 1021.7 | 2.2 | SSW | 0 | 0.0 |
| 08.04.2025 | 00:20 | 5.6 | 63 | -0.8 | 1021.7 | 3.6 | N | 0 | 0.0 |
| 08.04.2025 | 00:30 | 5.8 | 63 | -0.7 | 1021.8 | 2.5 | S | 0 | 0.0 |
| 08.04.2025 | 00:40 | 5.4 | 63 | -1.1 | 1022.0 | 1.8 | N | 0 | 0.0 |
| 08.04.2025 | 00:50 | 5.2 | 61 | -1.6 | 1022.0 | 1.8 | N | 0 | 0.0 |
| 08.04.2025 | 01:00 | 5.8 | 62 | -1.1 | 1021.9 | 1.4 | S | 0 | 0.0 |
| 08.04.2025 | 01:10 | 5.0 | 63 | -1.5 | 1022.0 | 1.8 | NO | 0 | 0.0 |
| 08.04.2025 | 01:20 | 5.0 | 61 | -2.0 | 1022.3 | 0.7 | N | 0 | 0.0 |
| 08.04.2025 | 01:30 | 5.2 | 63 | -1.2 | 1022.3 | 1.4 | OSO | 0 | 0.0 |
| 08.04.2025 | 01:40 | 4.7 | 65 | -1.3 | 1022.3 | 3.2 | NNO | 0 | 0.0 |
| 08.04.2025 | 01:50 | 4.6 | 65 | -1.5 | 1022.4 | 1.1 | N | 0 | 0.0 |
| 08.04.2025 | 02:00 | 4.6 | 65 | -1.5 | 1022.4 | 2.5 | NNO | 0 | 0.0 |
| 08.04.2025 | 02:10 | 4.3 | 63 | -2.0 | 1022.3 | 2.5 | NNO | 0 | 0.0 |
| 08.04.2025 | 02:20 | 5.0 | 59 | -2.3 | 1022.2 | 0.7 | N | 0 | 0.0 |
| 08.04.2025 | 02:30 | 4.7 | 63 | -1.8 | 1022.1 | 1.1 | N | 0 | 0.0 |
| 08.04.2025 | 02:40 | 4.5 | 69 | -0.8 | 1022.2 | 1.8 | NNO | 0 | 0.0 |
| 08.04.2025 | 02:50 | 4.2 | 67 | -1.4 | 1022.2 | 1.8 | N | 0 | 0.0 |
| 08.04.2025 | 03:00 | 4.0 | 67 | -1.5 | 1022.3 | 1.4 | N | 0 | 0.0 |
| 08.04.2025 | 03:10 | 4.3 | 65 | -1.8 | 1022.2 | 1.1 | NNO | 0 | 0.0 |
| 08.04.2025 | 03:20 | 3.8 | 66 | -2.0 | 1022.4 | 2.2 | NNO | 0 | 0.0 |
| 08.04.2025 | 03:30 | 3.8 | 66 | -2.0 | 1022.4 | 1.8 | O | 0 | 0.0 |
| 08.04.2025 | 03:40 | 3.7 | 66 | -2.1 | 1022.3 | 1.4 | NNO | 0 | 0.0 |
| 08.04.2025 | 03:50 | 4.0 | 68 | -1.4 | 1022.2 | 1.4 | NNO | 0 | 0.0 |
| 08.04.2025 | 04:00 | 3.8 | 66 | -2.1 | 1022.4 | 1.4 | NO | 0 | 0.0 |
| 08.04.2025 | 04:10 | 4.0 | 66 | -1.9 | 1022.3 | 1.4 | NO | 0 | 0.0 |
| 08.04.2025 | 04:20 | 3.5 | 66 | -2.3 | 1022.3 | 2.9 | N | 0 | 0.0 |
| 08.04.2025 | 04:30 | 3.4 | 66 | -2.4 | 1022.4 | 1.8 | NNO | 0 | 0.0 |
| 08.04.2025 | 04:40 | 3.5 | 65 | -2.6 | 1022.5 | 1.4 | ONO | 0 | 0.0 |
| 08.04.2025 | 04:50 | 4.0 | 63 | -2.5 | 1022.4 | 1.8 | ONO | 0 | 0.0 |
| 08.04.2025 | 05:00 | 3.5 | 65 | -2.5 | 1022.5 | 1.1 | N | 0 | 0.0 |
| 08.04.2025 | 05:10 | 3.4 | 65 | -2.6 | 1022.8 | 1.8 | NNO | 0 | 0.0 |
| 08.04.2025 | 05:20 | 3.1 | 67 | -2.4 | 1023.1 | 2.5 | NNO | 0 | 0.0 |
| 08.04.2025 | 05:31 | 3.1 | 67 | -2.4 | 1023.2 | 0.7 | N | 0 | 0.0 |
| 08.04.2025 | 05:41 | 3.1 | 68 | -2.3 | 1023.1 | 2.2 | ONO | 0 | 0.0 |
| 08.04.2025 | 05:51 | 2.7 | 69 | -2.3 | 1023.3 | 1.8 | N | 0 | 0.0 |
| 08.04.2025 | 06:01 | 2.8 | 68 | -2.4 | 1023.3 | 2.2 | NNO | 0 | 0.0 |
| 08.04.2025 | 06:11 | 2.9 | 67 | -2.6 | 1023.3 | 1.1 | OSO | 0 | 0.0 |
| 08.04.2025 | 06:21 | 3.0 | 68 | -2.3 | 1023.3 | 1.8 | N | 0 | 0.0 |
| 08.04.2025 | 06:31 | 2.6 | 71 | -2.2 | 1023.3 | 2.2 | NO | 0 | 0.0 |
| 08.04.2025 | 06:41 | 2.7 | 70 | -2.3 | 1023.2 | 1.1 | O | 0 | 0.0 |
| 08.04.2025 | 06:51 | 2.7 | 71 | -2.1 | 1023.3 | 1.1 | N | 2 | 0.0 |
| 08.04.2025 | 07:01 | 2.9 | 71 | -1.8 | 1023.3 | 0.7 | N | 5 | 0.0 |
| 08.04.2025 | 07:11 | 2.8 | 70 | -2.0 | 1023.4 | 2.2 | N | 10 | 0.0 |
| 08.04.2025 | 07:21 | 2.5 | 75 | -1.5 | 1023.4 | 1.8 | NNO | 14 | 0.0 |
| 08.04.2025 | 07:31 | 2.5 | 74 | -1.6 | 1023.4 | 1.4 | NNO | 19 | 0.0 |
| 08.04.2025 | 07:41 | 2.6 | 72 | -2.0 | 1023.4 | 1.1 | N | 24 | 0.0 |
| 08.04.2025 | 07:51 | 2.7 | 71 | -2.0 | 1023.4 | 1.1 | N | 28 | 0.0 |
| 08.04.2025 | 08:01 | 3.3 | 70 | -1.6 | 1023.4 | 0.4 | N | 31 | 0.0 |
| 08.04.2025 | 08:11 | 3.4 | 75 | -0.7 | 1023.3 | 1.8 | SSO | 34 | 0.0 |
| 08.04.2025 | 08:21 | 3.3 | 76 | -0.5 | 1023.5 | 2.5 | S | 38 | 0.0 |
| 08.04.2025 | 08:31 | 3.6 | 75 | -0.5 | 1023.4 | 0.7 | N | 40 | 0.0 |
| 08.04.2025 | 08:41 | 4.4 | 73 | 0.0 | 1023.2 | 4.7 | S | 43 | 0.0 |
| 08.04.2025 | 08:51 | 4.1 | 73 | -0.2 | 1023.3 | 5.0 | S | 212 | 0.0 |
| 08.04.2025 | 09:01 | 4.8 | 70 | -0.1 | 1023.3 | 4.3 | S | 232 | 0.0 |
| 08.04.2025 | 09:11 | 5.0 | 69 | -0.3 | 1023.2 | 4.0 | S | 254 | 0.0 |
| 08.04.2025 | 09:21 | 5.0 | 70 | -0.1 | 1023.2 | 4.7 | S | 276 | 0.0 |
| 08.04.2025 | 09:31 | 5.8 | 68 | 0.4 | 1023.2 | 2.9 | WSW | 297 | 0.0 |
| 08.04.2025 | 09:41 | 6.6 | 67 | 0.8 | 1023.1 | 2.5 | SW | 319 | 0.0 |
| 08.04.2025 | 09:51 | 7.1 | 67 | 1.4 | 1023.1 | 3.6 | WSW | 340 | 0.0 |
| 08.04.2025 | 10:01 | 7.4 | 67 | 1.6 | 1023.0 | 5.0 | SSW | 360 | 0.0 |
| 08.04.2025 | 10:11 | 7.5 | 68 | 2.0 | 1023.0 | 5.4 | S | 381 | 0.0 |
| 08.04.2025 | 10:21 | 7.6 | 67 | 1.8 | 1022.9 | 4.3 | S | 401 | 0.0 |
| 08.04.2025 | 10:31 | 7.4 | 67 | 1.7 | 1023.0 | 4.7 | SSW | 420 | 0.0 |
| 08.04.2025 | 10:41 | 7.3 | 64 | 1.0 | 1022.8 | 6.5 | S | 437 | 0.0 |
| 08.04.2025 | 10:52 | 8.7 | 61 | 1.6 | 1022.6 | 1.1 | S | 455 | 0.0 |
| 08.04.2025 | 11:02 | 8.1 | 64 | 1.6 | 1022.7 | 5.8 | S | 463 | 0.0 |
| 08.04.2025 | 11:12 | 8.1 | 63 | 1.5 | 1022.8 | 2.5 | W | 487 | 0.0 |
| 08.04.2025 | 11:22 | 9.3 | 57 | 1.3 | 1022.5 | 5.4 | SW | 497 | 0.0 |
| 08.04.2025 | 11:32 | 9.0 | 58 | 1.3 | 1022.6 | 1.1 | SW | 508 | 0.0 |
| 08.04.2025 | 11:42 | 10.1 | 56 | 1.6 | 1022.2 | 4.0 | W | 528 | 0.0 |
| 08.04.2025 | 11:52 | 10.5 | 55 | 1.7 | 1022.1 | 2.5 | W | 534 | 0.0 |
| 08.04.2025 | 12:02 | 10.3 | 56 | 1.8 | 1022.0 | 6.1 | S | 555 | 0.0 |
| 08.04.2025 | 12:12 | 11.1 | 55 | 2.4 | 1022.0 | 3.2 | SW | 563 | 0.0 |
| 08.04.2025 | 12:22 | 10.1 | 58 | 2.1 | 1022.3 | 2.5 | WSW | 570 | 0.0 |
| 08.04.2025 | 12:32 | 11.0 | 55 | 2.2 | 1022.0 | 2.2 | SO | 583 | 0.0 |
| 08.04.2025 | 12:42 | 10.7 | 50 | 0.8 | 1022.1 | 5.0 | SW | 592 | 0.0 |
| 08.04.2025 | 12:52 | 12.0 | 44 | 0.1 | 1021.7 | 3.6 | SSW | 599 | 0.0 |
| 08.04.2025 | 13:02 | 13.0 | 41 | -0.1 | 1021.2 | 4.3 | SW | 604 | 0.0 |
| 08.04.2025 | 13:12 | 12.0 | 46 | 0.7 | 1021.5 | 3.2 | SW | 607 | 0.0 |
| 08.04.2025 | 13:22 | 11.5 | 46 | 0.4 | 1021.4 | 5.0 | S | 610 | 0.0 |
| 08.04.2025 | 13:32 | 11.5 | 42 | -1.0 | 1021.3 | 4.3 | SSW | 610 | 0.0 |
| 08.04.2025 | 13:42 | 11.2 | 42 | -1.2 | 1021.3 | 4.7 | SSW | 608 | 0.0 |
| 08.04.2025 | 13:52 | 12.3 | 40 | -1.0 | 1020.9 | 4.7 | SSW | 610 | 0.0 |
| 08.04.2025 | 14:02 | 11.6 | 44 | -0.2 | 1021.0 | 6.5 | S | 608 | 0.0 |
| 08.04.2025 | 14:12 | 11.9 | 46 | 0.6 | 1020.8 | 4.7 | SSW | 606 | 0.0 |
| 08.04.2025 | 14:22 | 12.7 | 46 | 1.4 | 1020.4 | 2.2 | SW | 587 | 0.0 |
| 08.04.2025 | 14:32 | 13.3 | 44 | 1.2 | 1020.2 | 2.9 | S | 593 | 0.0 |
| 08.04.2025 | 14:42 | 14.7 | 40 | 1.3 | 1020.0 | 3.2 | SSW | 585 | 0.0 |
| 08.04.2025 | 14:52 | 14.2 | 37 | -0.2 | 1019.9 | 3.2 | SW | 577 | 0.0 |
| 08.04.2025 | 15:02 | 13.6 | 38 | -0.6 | 1020.0 | 4.0 | S | 562 | 0.0 |
| 08.04.2025 | 15:12 | 13.3 | 40 | 0.0 | 1020.0 | 0.7 | SW | 549 | 0.0 |
| 08.04.2025 | 15:22 | 13.1 | 41 | 0.2 | 1019.8 | 2.5 | S | 542 | 0.0 |
| 08.04.2025 | 15:32 | 13.9 | 41 | 0.9 | 1019.7 | 5.4 | S | 519 | 0.0 |
| 08.04.2025 | 15:42 | 15.5 | 34 | -0.3 | 1019.1 | 4.0 | SW | 511 | 0.0 |
| 08.04.2025 | 15:52 | 15.8 | 35 | 0.2 | 1018.9 | 3.2 | SSW | 492 | 0.0 |
| 08.04.2025 | 16:02 | 14.5 | 36 | -0.2 | 1018.9 | 3.2 | SSW | 467 | 0.0 |
| 08.04.2025 | 16:12 | 15.0 | 36 | 0.0 | 1018.8 | 3.6 | SSW | 465 | 0.0 |
| 08.04.2025 | 16:22 | 15.0 | 36 | 0.2 | 1018.6 | 5.4 | SSW | 402 | 0.0 |
| 08.04.2025 | 16:32 | 14.9 | 40 | 1.3 | 1018.4 | 5.4 | SSW | 414 | 0.0 |
| 08.04.2025 | 16:43 | 14.6 | 33 | -1.7 | 1018.4 | 4.3 | S | 402 | 0.0 |
| 08.04.2025 | 16:53 | 15.2 | 31 | -2.0 | 1018.2 | 5.0 | SSW | 365 | 0.0 |
| 08.04.2025 | 17:03 | 13.5 | 38 | -0.7 | 1018.5 | 6.5 | S | 328 | 0.0 |
| 08.04.2025 | 17:13 | 14.3 | 33 | -1.7 | 1018.2 | 5.4 | S | 355 | 0.0 |
| 08.04.2025 | 17:23 | 14.3 | 31 | -2.5 | 1018.1 | 6.1 | S | 335 | 0.0 |
| 08.04.2025 | 17:33 | 14.7 | 33 | -1.5 | 1018.0 | 4.0 | S | 293 | 0.0 |
| 08.04.2025 | 17:43 | 14.8 | 34 | -1.1 | 1018.0 | 5.8 | S | 271 | 0.0 |
| 08.04.2025 | 17:53 | 15.0 | 39 | 1.1 | 1017.9 | 4.7 | S | 269 | 0.0 |
| 08.04.2025 | 18:03 | 15.2 | 38 | 1.0 | 1017.7 | 4.3 | SW | 249 | 0.0 |
| 08.04.2025 | 18:13 | 15.1 | 38 | 1.0 | 1017.8 | 5.8 | S | 224 | 0.0 |
| 08.04.2025 | 18:23 | 14.6 | 42 | 1.7 | 1017.6 | 5.4 | SSW | 174 | 0.0 |
| 08.04.2025 | 18:33 | 14.4 | 41 | 1.4 | 1017.7 | 7.6 | S | 176 | 0.0 |
| 08.04.2025 | 18:43 | 14.3 | 41 | 1.1 | 1017.8 | 5.0 | S | 157 | 0.0 |
| 08.04.2025 | 18:53 | 14.2 | 41 | 1.1 | 1017.9 | 2.9 | N | 43 | 0.0 |
| 08.04.2025 | 19:03 | 13.8 | 42 | 1.0 | 1017.9 | 4.0 | N | 35 | 0.0 |
| 08.04.2025 | 19:13 | 13.7 | 39 | -0.2 | 1018.0 | 1.1 | NNO | 28 | 0.0 |
| 08.04.2025 | 19:23 | 13.5 | 40 | 0.1 | 1018.3 | 1.1 | N | 22 | 0.0 |
| 08.04.2025 | 19:33 | 12.9 | 41 | 0.0 | 1018.3 | 2.9 | NO | 16 | 0.0 |
| 08.04.2025 | 19:43 | 12.5 | 43 | 0.2 | 1018.4 | 5.0 | NNO | 13 | 0.0 |
| 08.04.2025 | 19:53 | 12.2 | 44 | 0.1 | 1018.6 | 7.9 | NNO | 8 | 0.0 |
| 08.04.2025 | 20:03 | 12.0 | 44 | 0.1 | 1018.6 | 3.2 | NNW | 4 | 0.0 |
| 08.04.2025 | 20:13 | 11.6 | 45 | 0.1 | 1018.6 | 4.7 | NNO | 0 | 0.0 |
| 08.04.2025 | 20:23 | 11.3 | 47 | 0.2 | 1018.9 | 2.5 | NNO | 0 | 0.0 |
| 08.04.2025 | 20:33 | 10.9 | 48 | 0.3 | 1019.1 | 3.6 | NO | 0 | 0.0 |
| 08.04.2025 | 20:43 | 10.8 | 49 | 0.4 | 1019.3 | 4.7 | NNO | 0 | 0.0 |
| 08.04.2025 | 20:53 | 10.7 | 48 | 0.1 | 1019.6 | 3.2 | N | 0 | 0.0 |
| 08.04.2025 | 21:03 | 10.3 | 50 | 0.2 | 1019.8 | 3.2 | NO | 0 | 0.0 |
| 08.04.2025 | 21:13 | 10.0 | 50 | 0.2 | 1020.1 | 3.6 | NO | 0 | 0.0 |
| 08.04.2025 | 21:23 | 10.0 | 50 | 0.1 | 1020.1 | 3.6 | N | 0 | 0.0 |
| 08.04.2025 | 21:33 | 10.2 | 48 | -0.3 | 1020.1 | 3.2 | NNO | 0 | 0.0 |
| 08.04.2025 | 21:43 | 9.8 | 51 | 0.1 | 1020.3 | 4.0 | NNO | 0 | 0.0 |
| 08.04.2025 | 21:53 | 9.6 | 52 | 0.1 | 1020.3 | 4.3 | NO | 0 | 0.0 |
| 08.04.2025 | 22:04 | 9.9 | 49 | -0.4 | 1020.2 | 1.4 | NNO | 0 | 0.0 |
| 08.04.2025 | 22:14 | 9.3 | 52 | 0.0 | 1020.4 | 0.7 | N | 0 | 0.0 |
| 08.04.2025 | 22:24 | 8.6 | 56 | 0.4 | 1020.6 | 1.4 | NNO | 0 | 0.0 |
| 08.04.2025 | 22:34 | 8.5 | 57 | 0.5 | 1020.6 | 1.4 | N | 0 | 0.0 |
| 08.04.2025 | 22:44 | 8.0 | 62 | 1.1 | 1020.7 | 0.7 | N | 0 | 0.0 |
| 08.04.2025 | 22:54 | 7.9 | 65 | 1.7 | 1020.7 | 0.4 | N | 0 | 0.0 |
| 08.04.2025 | 23:04 | 7.1 | 65 | 1.1 | 1020.8 | 2.5 | NO | 0 | 0.0 |
| 08.04.2025 | 23:14 | 7.3 | 60 | 0.1 | 1020.8 | 0.4 | N | 0 | 0.0 |
| 08.04.2025 | 23:24 | 7.2 | 61 | 0.1 | 1020.7 | 0.4 | N | 0 | 0.0 |
| 08.04.2025 | 23:34 | 7.1 | 67 | 1.4 | 1020.8 | 0.7 | N | 0 | 0.0 |
| 08.04.2025 | 23:44 | 6.8 | 62 | 0.0 | 1020.8 | 2.9 | NNO | 0 | 0.0 |
| 08.04.2025 | 23:54 | 7.0 | 69 | 1.6 | 1020.7 | 1.4 | SSO | 0 | 0.0 |